Time;durP1;ratioP1;P1;durP2;ratioP2;P2;SDS_P1;SDS_P2;PMS_P1;PMS_P2;Temp;Humidity;BMP_temperature;BMP_pressure;BME280_temperature;BME280_humidity;BME280_pressure;Samples;Min_cycle;Max_cycle;Signal;HPM_P1;HPM_P2
2022/06/10 00:00:26;;;;;;;1999.90;999.90;;;14.70;99.90;;;;;;4956215;28;20042;-79
2022/06/10 00:02:52;;;;;;;1999.90;999.90;;;14.70;99.90;;;;;;4967110;28;20541;-75
2022/06/10 00:05:22;;;;;;;1999.90;999.90;;;14.70;99.90;;;;;;4955863;28;20028;-79
2022/06/10 00:07:49;;;;;;;1999.90;999.90;;;14.70;99.90;;;;;;4965037;28;20031;-79
2022/06/10 00:10:18;;;;;;;1999.90;999.90;;;14.60;99.90;;;;;;4968878;28;20042;-75
2022/06/10 00:12:44;;;;;;;1999.90;999.90;;;14.70;99.90;;;;;;4954605;29;20027;-76
2022/06/10 00:15:10;;;;;;;1999.90;999.90;;;14.80;99.90;;;;;;4959474;28;20041;-79
2022/06/10 00:17:36;;;;;;;1999.90;999.90;;;14.70;99.90;;;;;;4973920;28;20074;-79
2022/06/10 00:20:03;;;;;;;1999.90;999.90;;;14.60;99.90;;;;;;4960572;28;20027;-75
2022/06/10 00:22:29;;;;;;;1999.90;999.90;;;14.60;99.90;;;;;;4963754;28;20019;-75
2022/06/10 00:24:55;;;;;;;1999.90;999.90;;;14.50;99.90;;;;;;4954478;29;20027;-78
2022/06/10 00:27:21;;;;;;;1999.90;999.90;;;14.50;99.90;;;;;;4936487;29;20035;-79
2022/06/10 00:29:47;;;;;;;1999.90;999.90;;;14.40;99.90;;;;;;4959234;28;20490;-75
2022/06/10 00:32:15;;;;;;;1999.90;999.90;;;14.40;99.90;;;;;;4976563;28;20026;-75
2022/06/10 00:34:41;;;;;;;1999.90;999.90;;;14.40;99.90;;;;;;4977706;28;20150;-75
2022/06/10 00:37:07;;;;;;;1999.90;999.90;;;14.40;99.90;;;;;;4977350;28;20069;-75
2022/06/10 00:39:34;;;;;;;1999.90;999.90;;;14.30;99.90;;;;;;4964218;28;20034;-75
2022/06/10 00:42:00;;;;;;;1999.90;999.90;;;14.30;99.90;;;;;;4977462;28;20108;-79
2022/06/10 00:44:56;;;;;;;1999.90;999.90;;;14.20;99.90;;;;;;4948614;28;20601;-79
2022/06/10 00:47:27;;;;;;;1999.90;999.90;;;14.10;99.90;;;;;;4966182;28;20490;-79
2022/06/10 00:50:19;;;;;;;1999.90;999.90;;;14.10;99.90;;;;;;4968540;28;20039;-75
2022/06/10 00:52:51;;;;;;;1999.90;999.90;;;14.10;99.90;;;;;;4951046;28;20047;-75
2022/06/10 00:55:17;;;;;;;1999.90;999.90;;;14.00;99.90;;;;;;4976772;28;20062;-79
2022/06/10 00:57:45;;;;;;;1999.90;999.90;;;13.90;99.90;;;;;;4968183;28;20031;-79
2022/06/10 01:00:18;;;;;;;1999.90;999.90;;;14.00;99.90;;;;;;4952599;28;20109;-79
2022/06/10 01:02:45;;;;;;;1999.90;999.90;;;13.90;99.90;;;;;;4967495;28;20027;-75
2022/06/10 01:05:20;;;;;;;1999.90;999.90;;;13.90;99.90;;;;;;4959916;28;20114;-79
2022/06/10 01:07:51;;;;;;;1999.90;999.90;;;13.90;99.90;;;;;;4968314;28;20027;-79
2022/06/10 01:10:18;;;;;;;1999.90;999.90;;;13.90;99.90;;;;;;4963841;28;20027;-75
2022/06/10 01:13:03;;;;;;;1999.90;999.90;;;14.00;99.90;;;;;;4973460;28;20471;-79
2022/06/10 01:15:28;;;;;;;1999.90;999.90;;;13.90;99.90;;;;;;4963791;28;20521;-76
2022/06/10 01:18:19;;;;;;;1999.90;999.90;;;13.90;99.90;;;;;;4976405;28;20031;-75
2022/06/10 01:21:10;;;;;;;1999.90;999.90;;;13.90;99.90;;;;;;4976332;28;20022;-79
2022/06/10 01:23:56;;;;;;;1999.90;999.90;;;13.90;99.90;;;;;;4973006;28;20067;-75
2022/06/10 01:27:48;;;;;;;1999.90;999.90;;;13.90;99.90;;;;;;4961444;28;20486;-79
2022/06/10 01:29:40;;;;;;;1999.90;999.90;;;13.80;99.90;;;;;;4975610;28;20046;-79
2022/06/10 01:32:14;;;;;;;1999.90;999.90;;;13.80;99.90;;;;;;4976094;28;20027;-75
2022/06/10 01:35:01;;;;;;;1999.90;999.90;;;13.80;99.90;;;;;;4973218;28;20031;-79
2022/06/10 01:37:38;;;;;;;1999.90;999.90;;;13.80;99.90;;;;;;4961729;28;20039;-79
2022/06/10 01:40:30;;;;;;;1999.90;999.90;;;13.80;99.90;;;;;;4930590;29;20022;-75
2022/06/10 01:43:19;;;;;;;1999.90;999.90;;;13.80;99.90;;;;;;4955910;28;20143;-78
2022/06/10 01:46:01;;;;;;;1999.90;999.90;;;13.80;99.90;;;;;;4956899;29;20023;-78
2022/06/10 01:48:32;;;;;;;1999.90;999.90;;;13.70;99.90;;;;;;4946597;29;20487;-75
2022/06/10 01:51:03;;;;;;;1999.90;999.90;;;13.70;99.90;;;;;;4963154;28;20030;-78
2022/06/10 01:53:37;;;;;;;1999.90;999.90;;;13.60;99.90;;;;;;4975739;28;20125;-79
2022/06/10 01:56:06;;;;;;;1999.90;999.90;;;13.60;99.90;;;;;;4975912;28;20023;-78
2022/06/10 01:58:38;;;;;;;1999.90;999.90;;;13.60;99.90;;;;;;4958337;28;20554;-75
2022/06/10 02:01:10;;;;;;;1999.90;999.90;;;13.50;99.90;;;;;;4946210;29;20066;-75
2022/06/10 02:03:38;;;;;;;1999.90;999.90;;;13.50;99.90;;;;;;4956385;29;20058;-79
2022/06/10 02:06:17;;;;;;;1999.90;999.90;;;13.50;99.90;;;;;;4964185;28;20422;-79
2022/06/10 02:08:51;;;;;;;1999.90;999.90;;;13.40;99.90;;;;;;4975674;28;20126;-79
2022/06/10 02:11:21;;;;;;;1999.90;999.90;;;13.50;99.90;;;;;;4975476;28;20053;-76
2022/06/10 02:13:57;;;;;;;1999.90;999.90;;;13.40;99.90;;;;;;4971161;28;20089;-75
2022/06/10 02:16:30;;;;;;;1999.90;999.90;;;13.40;99.90;;;;;;4953633;28;20019;-79
2022/06/10 02:19:23;;;;;;;1999.90;999.90;;;13.50;99.90;;;;;;4958052;28;20506;-76
2022/06/10 02:22:06;;;;;;;1999.90;999.90;;;13.40;99.90;;;;;;4956963;28;20081;-75
2022/06/10 02:24:42;;;;;;;1999.90;999.90;;;13.50;99.90;;;;;;4958966;28;20525;-76
2022/06/10 02:27:13;;;;;;;1999.90;999.90;;;13.40;99.90;;;;;;4975244;28;20026;-75
2022/06/10 02:29:49;;;;;;;1999.90;999.90;;;13.40;99.90;;;;;;4975238;28;20034;-76
2022/06/10 02:32:14;;;;;;;1999.90;999.90;;;13.40;99.90;;;;;;4974481;28;20019;-78
2022/06/10 02:34:40;;;;;;;1999.90;999.90;;;13.50;99.90;;;;;;4970063;28;20027;-75
2022/06/10 02:37:40;;;;;;;1999.90;999.90;;;13.50;99.90;;;;;;4954764;29;20110;-78
2022/06/10 02:40:09;;;;;;;1999.90;999.90;;;13.60;99.90;;;;;;4939636;29;20070;-79
2022/06/10 02:42:34;;;;;;;1999.90;999.90;;;13.70;99.90;;;;;;4973092;28;20019;-75
2022/06/10 02:45:18;;;;;;;1999.90;999.90;;;13.90;99.90;;;;;;4966074;28;20026;-75
2022/06/10 02:47:59;;;;;;;1999.90;999.90;;;13.90;99.90;;;;;;4961270;28;20023;-76
2022/06/10 02:50:25;;;;;;;1999.90;999.90;;;14.00;99.90;;;;;;4951157;28;20134;-79
2022/06/10 02:52:52;;;;;;;1999.90;999.90;;;14.00;99.90;;;;;;4974138;28;20054;-79
2022/06/10 02:55:21;;;;;;;1999.90;999.90;;;13.90;99.90;;;;;;4962164;28;20125;-78
2022/06/10 03:01:11;;;;;;;1999.90;999.90;;;14.00;99.90;;;;;;4961415;28;20085;-75
2022/06/10 03:03:37;;;;;;;1999.90;999.90;;;14.00;99.90;;;;;;4971659;28;20031;-78
2022/06/10 03:06:05;;;;;;;1999.90;999.90;;;14.00;99.90;;;;;;4970005;28;20118;-79
2022/06/10 03:08:38;;;;;;;1999.90;999.90;;;14.00;99.90;;;;;;4957271;28;20508;-79
2022/06/10 03:11:44;;;;;;;1999.90;999.90;;;14.10;99.90;;;;;;4974625;28;20039;-75
2022/06/10 03:14:38;;;;;;;1999.90;999.90;;;14.20;99.90;;;;;;4959271;28;20389;-79
2022/06/10 03:17:10;;;;;;;1999.90;999.90;;;14.30;99.90;;;;;;4962496;28;20055;-79
2022/06/10 03:19:52;;;;;;;1999.90;999.90;;;14.30;99.90;;;;;;4961289;28;20035;-76
2022/06/10 03:22:36;;;;;;;1999.90;999.90;;;14.30;99.90;;;;;;4930020;29;20067;-79
2022/06/10 03:25:15;;;;;;;1999.90;999.90;;;14.30;99.90;;;;;;4960355;28;20034;-75
2022/06/10 03:27:58;;;;;;;1999.90;999.90;;;14.30;99.90;;;;;;4974196;28;20402;-75
2022/06/10 03:30:26;;;;;;;;;;;14.30;99.90;;;;;;4974839;28;20026;-79
2022/06/10 03:33:02;;;;;;;1999.90;999.90;;;14.30;99.90;;;;;;4969266;28;19958;-76
2022/06/10 03:35:34;;;;;;;1999.90;999.90;;;14.40;99.90;;;;;;4967762;28;20035;-75
2022/06/10 03:38:03;;;;;;;1999.90;999.90;;;14.40;99.90;;;;;;4963184;28;20031;-79
2022/06/10 03:40:30;;;;;;;1999.90;999.90;;;14.50;99.90;;;;;;4956368;28;20094;-76
2022/06/10 03:42:59;;;;;;;1999.90;999.90;;;14.50;99.90;;;;;;4969275;28;20023;-79
2022/06/10 03:45:35;;;;;;;1999.90;999.90;;;14.50;99.90;;;;;;4968408;28;20386;-76
2022/06/10 03:48:02;;;;;;;1999.90;999.90;;;14.60;99.90;;;;;;4961091;28;20561;-79
2022/06/10 03:50:35;;;;;;;1999.90;999.90;;;14.70;99.90;;;;;;4958915;28;20406;-76
2022/06/10 03:53:01;;;;;;;1999.90;999.90;;;14.70;99.90;;;;;;4964297;28;20514;-79
2022/06/10 03:55:27;;;;;;;1999.90;999.90;;;14.70;99.90;;;;;;4971102;28;20035;-76
2022/06/10 03:57:52;;;;;;;1999.90;999.90;;;14.60;99.90;;;;;;4968858;28;20035;-76
2022/06/10 04:00:22;;;;;;;1999.90;999.90;;;14.50;99.90;;;;;;4954233;29;20038;-76
2022/06/10 04:02:48;;;;;;;1999.90;999.90;;;14.40;99.90;;;;;;4964505;28;20506;-79
2022/06/10 04:05:13;;;;;;;1999.90;999.90;;;14.30;99.90;;;;;;4959501;28;20056;-79
2022/06/10 04:07:41;;;;;;;1999.90;999.90;;;14.20;99.90;;;;;;4978386;28;20441;-75
2022/06/10 04:10:09;;;;;;;1999.90;999.90;;;14.20;99.90;;;;;;4965002;28;20031;-79
2022/06/10 04:12:36;;;;;;;1999.90;999.90;;;14.10;99.90;;;;;;4975790;28;20019;-79
2022/06/10 04:15:04;;;;;;;1999.90;999.90;;;14.10;99.90;;;;;;4976493;28;20031;-76
2022/06/10 04:17:29;;;;;;;1999.90;999.90;;;14.20;99.90;;;;;;4968942;28;20030;-75
2022/06/10 04:19:59;;;;;;;1999.90;999.90;;;14.20;99.90;;;;;;4964728;28;20023;-79
2022/06/10 04:22:26;;;;;;;1999.90;999.90;;;14.30;99.90;;;;;;4977089;28;20026;-75
2022/06/10 04:24:53;;;;;;;1999.90;999.90;;;14.30;99.90;;;;;;4968319;28;20030;-79
2022/06/10 04:27:19;;;;;;;1999.90;999.90;;;14.40;99.90;;;;;;4977592;28;20027;-76
2022/06/10 04:29:45;;;;;;;1999.90;999.90;;;14.50;99.90;;;;;;4977803;28;20019;-78
2022/06/10 04:32:10;;;;;;;1999.90;999.90;;;14.50;99.90;;;;;;4977523;28;20501;-79
2022/06/10 04:34:36;;;;;;;1999.90;999.90;;;14.60;99.90;;;;;;4977132;28;20035;-76
2022/06/10 04:37:03;;;;;;;1999.90;999.90;;;14.50;99.90;;;;;;4977277;28;20031;-79
2022/06/10 04:39:29;;;;;;;1999.90;999.90;;;14.50;99.90;;;;;;4959160;28;20126;-79
2022/06/10 04:41:55;;;;;;;1999.90;999.90;;;14.50;99.90;;;;;;4958113;29;20105;-75
2022/06/10 04:44:21;;;;;;;1999.90;999.90;;;14.50;99.90;;;;;;4963448;28;20027;-79
2022/06/10 04:46:47;;;;;;;1999.90;999.90;;;14.60;99.90;;;;;;4969925;28;20057;-75
2022/06/10 04:49:13;;;;;;;1999.90;999.90;;;14.60;99.90;;;;;;4958619;28;20475;-79
2022/06/10 04:51:38;;;;;;;1999.90;999.90;;;14.60;99.90;;;;;;4969506;28;20510;-76
2022/06/10 04:54:07;;;;;;;1999.90;999.90;;;14.60;99.90;;;;;;4959794;28;20409;-77
2022/06/10 04:56:33;;;;;;;1999.90;999.90;;;14.60;99.90;;;;;;4977171;28;20042;-76
2022/06/10 04:58:59;;;;;;;1999.90;999.90;;;14.70;99.90;;;;;;4950796;28;20023;-79
2022/06/10 05:01:25;;;;;;;1999.90;999.90;;;14.70;99.90;;;;;;4966516;28;20115;-76
2022/06/10 05:03:50;;;;;;;1999.90;999.90;;;14.80;99.90;;;;;;4959266;28;20099;-79
2022/06/10 05:06:16;;;;;;;1999.90;999.90;;;14.90;99.90;;;;;;4953775;28;20073;-75
2022/06/10 05:08:42;;;;;;;1999.90;999.90;;;14.90;99.90;;;;;;4949916;28;20101;-79
2022/06/10 05:11:07;;;;;;;1999.90;999.90;;;14.90;99.90;;;;;;4956306;29;20498;-79
2022/06/10 05:13:34;;;;;;;1999.90;999.90;;;14.90;99.90;;;;;;4968634;28;20027;-79
2022/06/10 05:16:00;;;;;;;1999.90;999.90;;;14.90;99.90;;;;;;4969753;28;20027;-76
2022/06/10 05:18:26;;;;;;;1999.90;999.90;;;14.90;99.90;;;;;;4964766;28;20019;-76
2022/06/10 05:20:53;;;;;;;1999.90;999.90;;;14.90;99.90;;;;;;4956016;29;20806;-76
2022/06/10 05:23:21;;;;;;;1999.90;999.90;;;14.90;99.90;;;;;;4956456;29;20446;-76
2022/06/10 05:25:47;;;;;;;1999.90;999.90;;;15.00;99.90;;;;;;4958143;28;20024;-76
2022/06/10 05:28:13;;;;;;;1999.90;999.90;;;15.10;99.90;;;;;;4960848;28;20030;-76
2022/06/10 05:30:40;;;;;;;1999.90;999.90;;;15.20;99.90;;;;;;4956375;29;20031;-76
2022/06/10 05:33:08;;;;;;;1999.90;999.90;;;15.30;99.90;;;;;;4953488;29;20382;-79
2022/06/10 05:35:34;;;;;;;1999.90;999.90;;;15.30;99.90;;;;;;4956717;28;20035;-76
2022/06/10 05:38:00;;;;;;;1999.90;999.90;;;15.50;99.90;;;;;;4955723;28;20031;-78
2022/06/10 05:40:28;;;;;;;1999.90;999.90;;;15.50;99.90;;;;;;4955179;29;20434;-76
2022/06/10 05:42:54;;;;;;;1999.90;999.90;;;15.50;99.90;;;;;;4965808;28;20562;-79
2022/06/10 05:45:21;;;;;;;1999.90;999.90;;;15.50;99.90;;;;;;4957483;28;20094;-76
2022/06/10 05:47:50;;;;;;;1999.90;999.90;;;15.50;99.90;;;;;;4961468;28;20023;-76
2022/06/10 05:50:21;;;;;;;1999.90;999.90;;;15.60;99.90;;;;;;4953225;29;20035;-79
2022/06/10 05:52:48;;;;;;;1999.90;999.90;;;15.60;99.90;;;;;;4953972;29;20106;-79
2022/06/10 05:55:15;;;;;;;1999.90;999.90;;;15.70;99.90;;;;;;4962708;28;20060;-76
2022/06/10 05:57:41;;;;;;;1999.90;999.90;;;15.80;99.90;;;;;;4972144;28;20058;-79
2022/06/10 06:00:13;;;;;;;1999.90;999.90;;;15.80;99.90;;;;;;4956454;29;20055;-76
2022/06/10 06:02:39;;;;;;;1999.90;999.90;;;15.90;99.90;;;;;;4943333;28;20480;-76
2022/06/10 06:05:07;;;;;;;1999.90;999.90;;;15.90;99.90;;;;;;4955211;29;20043;-76
2022/06/10 06:07:33;;;;;;;1999.90;999.90;;;16.00;99.90;;;;;;4956812;28;20494;-76
2022/06/10 06:09:59;;;;;;;1999.90;999.90;;;16.10;99.90;;;;;;4958767;28;20106;-76
2022/06/10 06:12:24;;;;;;;1999.90;999.90;;;16.20;99.90;;;;;;4948295;29;20422;-76
2022/06/10 06:14:50;;;;;;;1999.90;999.90;;;16.20;99.90;;;;;;4953936;28;20561;-76
2022/06/10 06:17:19;;;;;;;1999.90;999.90;;;16.30;99.90;;;;;;4953596;29;20034;-80
2022/06/10 06:19:45;;;;;;;1999.90;999.90;;;16.30;99.90;;;;;;4953916;29;20031;-76
2022/06/10 06:22:11;;;;;;;1999.90;999.90;;;16.40;99.90;;;;;;4929384;29;20024;-76
2022/06/10 06:24:38;;;;;;;1999.90;999.90;;;16.40;99.90;;;;;;4942809;28;20117;-76
2022/06/10 06:27:06;;;;;;;1999.90;999.90;;;16.50;99.90;;;;;;4973567;28;20022;-80
2022/06/10 06:29:32;;;;;;;1999.90;999.90;;;16.60;99.90;;;;;;4973320;28;20035;-79
2022/06/10 06:31:57;;;;;;;1999.90;999.90;;;16.70;99.90;;;;;;4957909;28;20035;-81
2022/06/10 06:34:24;;;;;;;1999.90;999.90;;;16.90;99.90;;;;;;4953978;29;20394;-76
2022/06/10 06:36:53;;;;;;;1999.90;999.90;;;16.90;99.90;;;;;;4963879;28;20035;-80
2022/06/10 06:39:20;;;;;;;1999.90;999.90;;;17.00;99.90;;;;;;4961185;28;20023;-77
2022/06/10 06:41:47;;;;;;;1999.90;999.90;;;17.10;99.90;;;;;;4963621;28;20027;-76
2022/06/10 06:44:12;;;;;;;1999.90;999.90;;;17.00;99.90;;;;;;4961627;28;20050;-80
2022/06/10 06:46:40;;;;;;;1999.90;999.90;;;17.00;99.90;;;;;;4964289;28;20035;-80
2022/06/10 06:49:12;;;;;;;1999.90;999.90;;;17.00;99.90;;;;;;4947492;28;20035;-80
2022/06/10 06:51:39;;;;;;;1999.90;999.90;;;17.00;99.90;;;;;;4962184;28;20093;-76
2022/06/10 06:54:06;;;;;;;1999.90;999.90;;;17.10;99.90;;;;;;4960214;28;20792;-76
2022/06/10 06:56:31;;;;;;;1999.90;999.90;;;17.20;99.90;;;;;;4954788;28;20019;-74
2022/06/10 06:58:57;;;;;;;1999.90;999.90;;;17.40;99.90;;;;;;4967027;28;20391;-79
2022/06/10 07:01:23;;;;;;;1999.90;999.90;;;17.40;99.90;;;;;;4965088;28;20102;-76
2022/06/10 07:03:49;;;;;;;1999.90;999.90;;;17.40;99.90;;;;;;4963577;28;20605;-78
2022/06/10 07:06:15;;;;;;;1999.90;999.90;;;17.50;99.90;;;;;;4952954;29;20486;-75
2022/06/10 07:08:41;;;;;;;1999.90;999.90;;;17.50;99.90;;;;;;4954563;28;20027;-76
2022/06/10 07:11:08;;;;;;;1999.90;999.90;;;17.60;99.90;;;;;;4943051;28;20103;-79
2022/06/10 07:13:36;;;;;;;1999.90;999.90;;;17.60;99.90;;;;;;4951393;28;20031;-75
2022/06/10 07:16:02;;;;;;;1999.90;999.90;;;17.60;99.90;;;;;;4953396;28;20034;-77
2022/06/10 07:18:30;;;;;;;1999.90;999.90;;;17.70;99.90;;;;;;4955114;28;20031;-77
2022/06/10 07:20:56;;;;;;;1999.90;999.90;;;17.80;99.90;;;;;;4935744;29;20028;-76
2022/06/10 07:23:22;;;;;;;1999.90;999.90;;;17.80;99.90;;;;;;4953491;28;20027;-77
2022/06/10 07:25:48;;;;;;;1999.90;999.90;;;17.90;99.90;;;;;;4953018;28;20031;-76
2022/06/10 07:28:14;;;;;;;1999.90;999.90;;;17.80;99.90;;;;;;4958880;28;20058;-76
2022/06/10 07:30:41;;;;;;;1999.90;999.90;;;17.80;99.90;;;;;;4950246;29;20388;-77
2022/06/10 07:33:07;;;;;;;1999.90;999.90;;;18.00;99.90;;;;;;4953001;28;20422;-78
2022/06/10 07:35:34;;;;;;;1999.90;999.90;;;18.10;99.90;;;;;;4951314;28;20031;-76
2022/06/10 07:37:59;;;;;;;1999.90;999.90;;;18.20;99.90;;;;;;4958953;28;20100;-77
2022/06/10 07:43:18;;;;;;;1999.90;999.90;;;18.40;99.90;;;;;;4956177;28;20120;-76
2022/06/10 07:45:44;;;;;;;1999.90;999.90;;;18.60;99.90;;;;;;4952978;28;20023;-76
2022/06/10 07:48:13;;;;;;;1999.90;999.90;;;18.60;99.90;;;;;;4955447;28;20110;-76
2022/06/10 07:50:41;;;;;;;1999.90;999.90;;;18.80;99.90;;;;;;4947632;28;20046;-77
2022/06/10 07:53:07;;;;;;;1999.90;999.90;;;19.10;99.90;;;;;;4951530;28;20062;-79
2022/06/10 07:55:33;;;;;;;1999.90;999.90;;;19.30;99.90;;;;;;4961500;28;20113;-76
2022/06/10 07:57:59;;;;;;;1999.90;999.90;;;19.60;99.90;;;;;;4957632;28;20410;-77
2022/06/10 08:00:26;;;;;;;1999.90;999.90;;;19.70;99.90;;;;;;4935660;28;20039;-77
2022/06/10 08:02:51;;;;;;;1999.90;999.90;;;19.90;99.90;;;;;;4951258;29;20149;-77
2022/06/10 08:05:19;;;;;;;1999.90;999.90;;;19.60;99.90;;;;;;4949432;28;20070;-77
2022/06/10 08:07:46;;;;;;;1999.90;999.90;;;19.50;99.90;;;;;;4962959;28;20413;-79
2022/06/10 08:10:33;;;;;;;1999.90;999.90;;;19.40;99.90;;;;;;4951564;28;20031;-77
2022/06/10 08:12:59;;;;;;;1999.90;999.90;;;19.10;99.90;;;;;;4949287;28;20032;-77
2022/06/10 08:15:26;;;;;;;1999.90;999.90;;;18.90;99.90;;;;;;4950993;28;20082;-77
2022/06/10 08:17:53;;;;;;;1999.90;999.90;;;18.90;99.90;;;;;;4935566;29;20438;-78
2022/06/10 08:22:32;;;;;;;1999.90;999.90;;;18.90;99.90;;;;;;4953071;28;20031;-78
2022/06/10 08:23:10;;;;;;;1999.90;999.90;;;18.80;99.90;;;;;;4945620;29;20035;-76
2022/06/10 08:25:36;;;;;;;1999.90;999.90;;;18.70;99.90;;;;;;4950792;28;20041;-78
2022/06/10 08:28:02;;;;;;;1999.90;999.90;;;18.90;99.90;;;;;;4953120;28;20070;-78
2022/06/10 08:30:28;;;;;;;1999.90;999.90;;;18.90;99.90;;;;;;4953615;28;20483;-76
2022/06/10 08:32:54;;;;;;;1999.90;999.90;;;19.20;99.90;;;;;;4954975;28;20126;-76
2022/06/10 08:35:19;;;;;;;1999.90;999.90;;;19.20;99.90;;;;;;4953381;28;20031;-76
2022/06/10 08:37:45;;;;;;;1999.90;999.90;;;19.30;99.90;;;;;;4953782;28;20040;-76
2022/06/10 08:40:24;;;;;;;1999.90;999.90;;;19.30;99.90;;;;;;4949377;29;20431;-80
2022/06/10 08:42:52;;;;;;;1999.90;999.90;;;19.20;99.90;;;;;;4943756;28;20077;-79
2022/06/10 08:45:30;;;;;;;1999.90;999.90;;;19.20;99.90;;;;;;4967069;28;20443;-77
2022/06/10 08:48:01;;;;;;;1999.90;999.90;;;19.00;99.90;;;;;;4949601;28;20488;-75
2022/06/10 08:50:51;;;;;;;1999.90;999.90;;;19.00;99.90;;;;;;4951511;29;20039;-76
2022/06/10 08:53:37;;;;;;;1999.90;999.90;;;19.10;99.90;;;;;;4948771;29;20055;-77
2022/06/10 08:56:16;;;;;;;1999.90;999.90;;;19.20;99.90;;;;;;4958251;28;20118;-77
2022/06/10 08:58:57;;;;;;;1999.90;999.90;;;19.10;99.90;;;;;;4952260;28;20023;-78
2022/06/10 09:01:24;;;;;;;1999.90;999.90;;;19.20;99.90;;;;;;4964024;28;20039;-78
2022/06/10 09:04:32;;;;;;;1999.90;999.90;;;19.20;99.90;;;;;;4953074;29;20043;-79
2022/06/10 09:07:03;;;;;;;1999.90;999.90;;;19.40;99.90;;;;;;4939554;28;20406;-78
2022/06/10 09:09:32;;;;;;;1999.90;999.90;;;19.50;99.90;;;;;;4951831;28;20028;-78
2022/06/10 09:12:21;;;;;;;1999.90;999.90;;;19.40;99.90;;;;;;4945918;28;20118;-80
2022/06/10 09:14:52;;;;;;;1999.90;999.90;;;19.40;99.90;;;;;;4951584;28;20124;-77
2022/06/10 09:17:31;;;;;;;1999.90;999.90;;;19.70;99.90;;;;;;4950296;28;20046;-77
2022/06/10 09:20:25;;;;;;;1999.90;999.90;;;19.90;99.90;;;;;;4933926;29;20027;-78
2022/06/10 09:22:57;;;;;;;1999.90;999.90;;;20.10;99.90;;;;;;4956243;28;20049;-78
2022/06/10 09:25:29;;;;;;;1999.90;999.90;;;20.00;99.90;;;;;;4956213;28;20027;-77
2022/06/10 09:27:57;;;;;;;1999.90;999.90;;;20.10;99.90;;;;;;4958804;28;20031;-76
2022/06/10 09:30:47;;;;;;;1999.90;999.90;;;20.30;99.90;;;;;;4953491;29;20050;-77
2022/06/10 09:33:40;;;;;;;1999.90;999.90;;;20.40;99.90;;;;;;4942600;28;20118;-81
2022/06/10 09:36:14;;;;;;;1999.90;999.90;;;20.40;99.90;;;;;;4953751;29;20123;-76
2022/06/10 09:38:50;;;;;;;1999.90;999.90;;;20.50;99.90;;;;;;4936158;29;20042;-79
2022/06/10 09:41:34;;;;;;;1999.90;999.90;;;21.10;99.90;;;;;;4951890;29;20414;-78
2022/06/10 09:44:10;;;;;;;1999.90;999.90;;;21.50;99.90;;;;;;4953688;29;20027;-76
2022/06/10 09:46:39;;;;;;;1999.90;999.90;;;21.20;99.90;;;;;;4956124;28;20058;-79
2022/06/10 09:49:28;;;;;;;1999.90;999.90;;;21.30;99.90;;;;;;4953415;29;20035;-76
2022/06/10 09:52:28;;;;;;;1999.90;999.90;;;21.60;99.90;;;;;;4951050;28;20059;-76
2022/06/10 09:55:00;;;;;;;1999.90;999.90;;;21.50;99.90;;;;;;4887222;29;20134;-75
2022/06/10 09:57:34;;;;;;;1999.90;999.90;;;21.10;99.90;;;;;;4944227;29;20035;-78
2022/06/10 10:00:11;;;;;;;1999.90;999.90;;;21.10;99.90;;;;;;4953312;29;20554;-78
2022/06/10 10:03:00;;;;;;;1999.90;999.90;;;21.30;99.90;;;;;;4953637;28;20483;-79
2022/06/10 10:05:36;;;;;;;1999.90;999.90;;;21.40;99.90;;;;;;4953056;28;20557;-79
2022/06/10 10:08:26;;;;;;;1999.90;999.90;;;21.60;99.90;;;;;;4945727;28;20065;-77
2022/06/10 10:10:51;;;;;;;1999.90;999.90;;;22.10;99.90;;;;;;4930209;28;20031;-78
2022/06/10 10:13:47;;;;;;;1999.90;999.90;;;23.00;99.90;;;;;;4936615;28;20039;-79
2022/06/10 10:16:19;;;;;;;1999.90;999.90;;;24.20;99.90;;;;;;4943799;29;20050;-77
2022/06/10 10:18:54;;;;;;;1999.90;999.90;;;24.30;99.90;;;;;;4951084;29;20023;-78
2022/06/10 10:21:33;;;;;;;1999.90;999.90;;;24.00;99.90;;;;;;4937381;29;20031;-79
2022/06/10 10:23:59;;;;;;;1999.90;999.90;;;26.30;97.70;;;;;;4954285;28;20604;-78
2022/06/10 10:26:30;;;;;;;1999.90;999.90;;;27.50;95.70;;;;;;4945926;28;20055;-78
2022/06/10 10:29:12;;;;;;;1999.90;999.90;;;26.80;96.20;;;;;;4954454;28;20027;-80
2022/06/10 10:32:09;;;;;;;1999.90;999.90;;;25.20;97.40;;;;;;4952019;29;20041;-77
2022/06/10 10:34:38;;;;;;;1999.90;999.90;;;23.60;99.70;;;;;;4951108;29;20118;-78
2022/06/10 10:37:19;;;;;;;1999.90;999.90;;;24.40;99.20;;;;;;4935933;29;20049;-78
2022/06/10 10:39:54;;;;;;;1999.90;999.90;;;24.70;99.00;;;;;;4951477;28;20015;-79
2022/06/10 10:42:23;;;;;;;1999.90;999.90;;;26.30;97.20;;;;;;4951347;28;20027;-75
2022/06/10 10:45:10;;;;;;;1999.90;999.90;;;28.00;95.60;;;;;;4951748;29;20028;-76
2022/06/10 10:47:37;;;;;;;1999.90;999.90;;;28.00;94.70;;;;;;4951540;28;20102;-76
2022/06/10 10:50:05;;;;;;;1999.90;999.90;;;28.00;94.50;;;;;;4934104;29;20024;-76
2022/06/10 10:52:34;;;;;;;1999.90;999.90;;;28.30;94.30;;;;;;4946402;29;20410;-77
2022/06/10 10:55:11;;;;;;;1999.90;999.90;;;28.90;93.60;;;;;;4933562;29;20038;-76
2022/06/10 10:57:40;;;;;;;1999.90;999.90;;;27.80;93.90;;;;;;4935662;29;20129;-75
2022/06/10 11:00:11;;;;;;;1999.90;999.90;;;27.20;94.80;;;;;;4931244;29;20024;-76
2022/06/10 11:02:57;;;;;;;1999.90;999.90;;;28.00;94.00;;;;;;4926183;29;20039;-76
2022/06/10 11:05:31;;;;;;;1999.90;999.90;;;27.30;94.30;;;;;;4931257;29;20059;-76
2022/06/10 11:08:26;;;;;;;1999.90;999.90;;;27.70;94.40;;;;;;4911235;29;20542;-75
2022/06/10 11:11:08;;;;;;;1999.90;999.90;;;27.70;93.70;;;;;;4928014;29;20050;-76
2022/06/10 11:13:36;;;;;;;1999.90;999.90;;;27.80;93.80;;;;;;4926325;29;20040;-76
2022/06/10 11:16:18;;;;;;;1999.90;999.90;;;28.80;93.30;;;;;;4913855;29;20392;-77
2022/06/10 11:18:48;;;;;;;1999.90;999.90;;;28.10;93.10;;;;;;4894349;29;20150;-76
2022/06/10 11:21:14;;;;;;;1999.90;999.90;;;27.90;93.30;;;;;;4938411;29;20043;-78
2022/06/10 11:23:51;;;;;;;1999.90;999.90;;;28.90;93.10;;;;;;4929758;29;20031;-75
2022/06/10 11:26:18;;;;;;;1999.90;999.90;;;28.30;92.80;;;;;;4930635;29;20067;-76
2022/06/10 11:28:44;;;;;;;1999.90;999.90;;;27.70;93.60;;;;;;4935127;29;20028;-77
2022/06/10 11:31:22;;;;;;;1999.90;999.90;;;28.40;93.30;;;;;;4914583;29;20570;-77
2022/06/10 11:33:52;;;;;;;1999.90;999.90;;;28.70;92.80;;;;;;4927071;29;20036;-77
2022/06/10 11:36:35;;;;;;;1999.90;999.90;;;28.40;92.80;;;;;;4929057;29;20067;-76
2022/06/10 11:39:17;;;;;;;1999.90;999.90;;;27.80;93.00;;;;;;4930362;29;20063;-76
2022/06/10 11:41:56;;;;;;;;;;;27.80;93.20;;;;;;4931309;29;20062;-76
2022/06/10 11:44:23;;;;;;;1999.90;999.90;;;27.90;93.10;;;;;;4931034;29;19942;-77
2022/06/10 11:47:10;;;;;;;1999.90;999.90;;;27.30;93.70;;;;;;4910160;29;20032;-77
2022/06/10 11:49:59;;;;;;;1999.90;999.90;;;27.00;94.00;;;;;;4932770;29;20399;-77
2022/06/10 11:52:33;;;;;;;1999.90;999.90;;;27.10;93.80;;;;;;4948653;28;20051;-76
2022/06/10 11:55:19;;;;;;;1999.90;999.90;;;27.10;93.90;;;;;;4946946;29;20066;-77
2022/06/10 12:01:02;;;;;;;1999.90;999.90;;;26.80;94.20;;;;;;4948851;28;20049;-77
2022/06/10 12:03:36;;;;;;;1999.90;999.90;;;27.40;93.80;;;;;;4951729;28;20138;-76
2022/06/10 12:06:14;;;;;;;1999.90;999.90;;;27.90;93.40;;;;;;4949036;29;20055;-76
2022/06/10 12:08:48;;;;;;;1999.90;999.90;;;27.10;93.70;;;;;;4949516;28;20063;-76
2022/06/10 12:11:38;;;;;;;1999.90;999.90;;;26.90;93.80;;;;;;4949997;28;20067;-76
2022/06/10 12:14:16;;;;;;;1999.90;999.90;;;26.90;94.10;;;;;;4950104;28;20034;-78
2022/06/10 12:17:01;;;;;;;1999.90;999.90;;;27.50;93.60;;;;;;4950650;28;20027;-76
2022/06/10 12:19:44;;;;;;;1999.90;999.90;;;27.40;94.00;;;;;;4947479;28;20062;-76
2022/06/10 12:22:10;;;;;;;;;;;28.00;93.50;;;;;;4925278;29;20030;-77
2022/06/10 12:24:36;;;;;;;1999.90;999.90;;;27.90;93.90;;;;;;4935079;28;20784;-76
2022/06/10 12:27:11;;;;;;;1999.90;999.90;;;27.30;93.40;;;;;;4959803;28;20126;-76
2022/06/10 12:29:50;;;;;;;1999.90;999.90;;;27.10;93.80;;;;;;4953567;28;20503;-76
2022/06/10 12:33:17;;;;;;;1999.90;999.90;;;26.70;93.70;;;;;;4958093;28;20034;-77
2022/06/10 12:35:44;;;;;;;1999.90;999.90;;;26.90;94.30;;;;;;4910029;29;20040;-77